sensor_id;sensor_type;location;lat;lon;timestamp;P1;durP1;ratioP1;P2;durP2;ratioP2
7845;SDS011;3968;51.424;6.788;2022-11-15T00:00:23;11.50;;;8.10;;
7845;SDS011;3968;51.424;6.788;2022-11-15T00:02:49;9.40;;;8.40;;
7845;SDS011;3968;51.424;6.788;2022-11-15T00:05:14;10.93;;;8.20;;
7845;SDS011;3968;51.424;6.788;2022-11-15T00:07:40;11.17;;;8.37;;
7845;SDS011;3968;51.424;6.788;2022-11-15T00:10:06;9.20;;;8.07;;
7845;SDS011;3968;51.424;6.788;2022-11-15T00:12:32;10.57;;;8.07;;
7845;SDS011;3968;51.424;6.788;2022-11-15T00:14:57;9.70;;;7.87;;
7845;SDS011;3968;51.424;6.788;2022-11-15T00:17:23;9.50;;;8.60;;
7845;SDS011;3968;51.424;6.788;2022-11-15T00:19:48;10.67;;;8.73;;
7845;SDS011;3968;51.424;6.788;2022-11-15T00:22:14;9.33;;;7.50;;
7845;SDS011;3968;51.424;6.788;2022-11-15T00:24:40;10.27;;;7.90;;
7845;SDS011;3968;51.424;6.788;2022-11-15T00:27:05;11.43;;;8.27;;
7845;SDS011;3968;51.424;6.788;2022-11-15T00:29:31;10.33;;;8.27;;
7845;SDS011;3968;51.424;6.788;2022-11-15T00:31:56;10.17;;;7.43;;
7845;SDS011;3968;51.424;6.788;2022-11-15T00:34:22;9.47;;;7.77;;
7845;SDS011;3968;51.424;6.788;2022-11-15T00:36:48;10.37;;;8.53;;
7845;SDS011;3968;51.424;6.788;2022-11-15T00:39:13;10.27;;;8.70;;
7845;SDS011;3968;51.424;6.788;2022-11-15T00:41:39;9.00;;;7.47;;
7845;SDS011;3968;51.424;6.788;2022-11-15T00:44:04;9.57;;;8.37;;
7845;SDS011;3968;51.424;6.788;2022-11-15T00:46:30;12.33;;;7.93;;
7845;SDS011;3968;51.424;6.788;2022-11-15T00:48:55;8.23;;;7.40;;
7845;SDS011;3968;51.424;6.788;2022-11-15T00:51:21;10.73;;;7.50;;
7845;SDS011;3968;51.424;6.788;2022-11-15T00:53:47;10.23;;;7.80;;
7845;SDS011;3968;51.424;6.788;2022-11-15T00:56:12;9.57;;;7.97;;
7845;SDS011;3968;51.424;6.788;2022-11-15T00:58:38;12.23;;;7.97;;
7845;SDS011;3968;51.424;6.788;2022-11-15T01:01:07;13.87;;;7.37;;
7845;SDS011;3968;51.424;6.788;2022-11-15T01:03:35;11.03;;;7.80;;
7845;SDS011;3968;51.424;6.788;2022-11-15T01:06:01;10.87;;;8.00;;
7845;SDS011;3968;51.424;6.788;2022-11-15T01:08:27;10.37;;;7.43;;
7845;SDS011;3968;51.424;6.788;2022-11-15T01:10:53;11.93;;;7.50;;
7845;SDS011;3968;51.424;6.788;2022-11-15T01:13:19;10.50;;;8.03;;
7845;SDS011;3968;51.424;6.788;2022-11-15T01:15:44;10.63;;;8.03;;
7845;SDS011;3968;51.424;6.788;2022-11-15T01:18:10;13.47;;;8.90;;
7845;SDS011;3968;51.424;6.788;2022-11-15T01:20:39;9.00;;;7.97;;
7845;SDS011;3968;51.424;6.788;2022-11-15T01:23:06;9.00;;;8.10;;
7845;SDS011;3968;51.424;6.788;2022-11-15T01:25:32;9.93;;;7.43;;
7845;SDS011;3968;51.424;6.788;2022-11-15T01:27:58;11.53;;;8.40;;
7845;SDS011;3968;51.424;6.788;2022-11-15T01:30:23;10.37;;;7.93;;
7845;SDS011;3968;51.424;6.788;2022-11-15T01:32:49;9.13;;;7.97;;
7845;SDS011;3968;51.424;6.788;2022-11-15T01:35:14;9.20;;;7.80;;
7845;SDS011;3968;51.424;6.788;2022-11-15T01:37:40;11.87;;;8.23;;
7845;SDS011;3968;51.424;6.788;2022-11-15T01:40:06;11.87;;;7.77;;
7845;SDS011;3968;51.424;6.788;2022-11-15T01:42:32;10.70;;;8.23;;
7845;SDS011;3968;51.424;6.788;2022-11-15T01:44:57;13.60;;;8.37;;
7845;SDS011;3968;51.424;6.788;2022-11-15T01:47:24;9.73;;;8.37;;
7845;SDS011;3968;51.424;6.788;2022-11-15T01:52:22;9.30;;;8.10;;
7845;SDS011;3968;51.424;6.788;2022-11-15T01:54:52;10.50;;;7.73;;
7845;SDS011;3968;51.424;6.788;2022-11-15T01:57:39;11.23;;;7.13;;
7845;SDS011;3968;51.424;6.788;2022-11-15T02:00:07;10.40;;;7.97;;
7845;SDS011;3968;51.424;6.788;2022-11-15T02:02:34;11.37;;;7.97;;
7845;SDS011;3968;51.424;6.788;2022-11-15T02:05:02;11.17;;;7.40;;
7845;SDS011;3968;51.424;6.788;2022-11-15T02:07:28;9.00;;;7.07;;
7845;SDS011;3968;51.424;6.788;2022-11-15T02:09:55;8.87;;;7.60;;
7845;SDS011;3968;51.424;6.788;2022-11-15T02:12:25;10.07;;;7.63;;
7845;SDS011;3968;51.424;6.788;2022-11-15T02:14:51;9.23;;;7.63;;
7845;SDS011;3968;51.424;6.788;2022-11-15T02:25:53;9.70;;;7.20;;
7845;SDS011;3968;51.424;6.788;2022-11-15T02:39:17;11.73;;;7.37;;
7845;SDS011;3968;51.424;6.788;2022-11-15T02:41:46;9.33;;;7.03;;
7845;SDS011;3968;51.424;6.788;2022-11-15T02:44:58;9.47;;;7.13;;
7845;SDS011;3968;51.424;6.788;2022-11-15T02:47:11;9.63;;;7.07;;
7845;SDS011;3968;51.424;6.788;2022-11-15T02:50:15;9.23;;;7.13;;
7845;SDS011;3968;51.424;6.788;2022-11-15T02:52:35;8.00;;;7.10;;
7845;SDS011;3968;51.424;6.788;2022-11-15T02:55:01;9.43;;;7.70;;
7845;SDS011;3968;51.424;6.788;2022-11-15T03:00:09;9.00;;;6.87;;
7845;SDS011;3968;51.424;6.788;2022-11-15T03:05:42;11.00;;;7.10;;
7845;SDS011;3968;51.424;6.788;2022-11-15T03:11:02;9.00;;;6.77;;
7845;SDS011;3968;51.424;6.788;2022-11-15T03:13:43;8.53;;;6.83;;
7845;SDS011;3968;51.424;6.788;2022-11-15T03:19:05;10.73;;;7.80;;
7845;SDS011;3968;51.424;6.788;2022-11-15T03:21:32;8.67;;;7.73;;
7845;SDS011;3968;51.424;6.788;2022-11-15T03:24:00;9.83;;;8.23;;
7845;SDS011;3968;51.424;6.788;2022-11-15T03:26:29;12.57;;;8.00;;
7845;SDS011;3968;51.424;6.788;2022-11-15T03:29:00;11.63;;;7.90;;
7845;SDS011;3968;51.424;6.788;2022-11-15T03:31:35;12.23;;;8.10;;
7845;SDS011;3968;51.424;6.788;2022-11-15T03:35:00;14.40;;;9.17;;
7845;SDS011;3968;51.424;6.788;2022-11-15T03:36:59;10.27;;;7.70;;
7845;SDS011;3968;51.424;6.788;2022-11-15T03:39:24;14.17;;;8.40;;
7845;SDS011;3968;51.424;6.788;2022-11-15T03:47:16;9.87;;;8.47;;
7845;SDS011;3968;51.424;6.788;2022-11-15T03:50:03;9.37;;;8.13;;
7845;SDS011;3968;51.424;6.788;2022-11-15T03:52:36;9.43;;;8.07;;
7845;SDS011;3968;51.424;6.788;2022-11-15T03:55:02;11.20;;;7.73;;
7845;SDS011;3968;51.424;6.788;2022-11-15T03:57:30;10.63;;;8.47;;
7845;SDS011;3968;51.424;6.788;2022-11-15T03:59:55;9.00;;;8.10;;
7845;SDS011;3968;51.424;6.788;2022-11-15T04:02:21;8.67;;;7.77;;
7845;SDS011;3968;51.424;6.788;2022-11-15T04:04:47;9.10;;;7.47;;
7845;SDS011;3968;51.424;6.788;2022-11-15T04:07:12;8.90;;;8.00;;
7845;SDS011;3968;51.424;6.788;2022-11-15T04:09:38;10.37;;;7.27;;
7845;SDS011;3968;51.424;6.788;2022-11-15T04:12:23;10.03;;;7.47;;
7845;SDS011;3968;51.424;6.788;2022-11-15T04:14:56;9.97;;;7.30;;
7845;SDS011;3968;51.424;6.788;2022-11-15T04:17:39;10.43;;;7.77;;
7845;SDS011;3968;51.424;6.788;2022-11-15T04:23:23;12.87;;;7.97;;
7845;SDS011;3968;51.424;6.788;2022-11-15T04:28:50;8.30;;;7.37;;
7845;SDS011;3968;51.424;6.788;2022-11-15T04:31:34;11.03;;;7.70;;
7845;SDS011;3968;51.424;6.788;2022-11-15T04:34:00;8.37;;;7.57;;
7845;SDS011;3968;51.424;6.788;2022-11-15T04:36:25;9.17;;;7.90;;
7845;SDS011;3968;51.424;6.788;2022-11-15T04:39:09;8.67;;;7.47;;
7845;SDS011;3968;51.424;6.788;2022-11-15T04:41:35;7.83;;;6.80;;
7845;SDS011;3968;51.424;6.788;2022-11-15T04:44:01;8.47;;;7.60;;
7845;SDS011;3968;51.424;6.788;2022-11-15T04:46:26;10.57;;;7.60;;
7845;SDS011;3968;51.424;6.788;2022-11-15T04:48:52;8.00;;;7.20;;
7845;SDS011;3968;51.424;6.788;2022-11-15T04:51:19;8.17;;;6.43;;
7845;SDS011;3968;51.424;6.788;2022-11-15T04:53:44;8.10;;;6.77;;
7845;SDS011;3968;51.424;6.788;2022-11-15T04:56:10;7.13;;;6.30;;
7845;SDS011;3968;51.424;6.788;2022-11-15T04:58:36;7.33;;;6.50;;
7845;SDS011;3968;51.424;6.788;2022-11-15T05:01:11;7.30;;;6.03;;
7845;SDS011;3968;51.424;6.788;2022-11-15T05:03:41;7.83;;;6.10;;
7845;SDS011;3968;51.424;6.788;2022-11-15T05:06:26;7.97;;;6.17;;
7845;SDS011;3968;51.424;6.788;2022-11-15T05:08:52;6.83;;;6.13;;
7845;SDS011;3968;51.424;6.788;2022-11-15T05:11:18;8.83;;;6.00;;
7845;SDS011;3968;51.424;6.788;2022-11-15T05:13:44;7.17;;;6.27;;
7845;SDS011;3968;51.424;6.788;2022-11-15T05:16:09;6.83;;;5.77;;
7845;SDS011;3968;51.424;6.788;2022-11-15T05:18:35;7.93;;;6.03;;
7845;SDS011;3968;51.424;6.788;2022-11-15T05:21:04;6.30;;;5.70;;
7845;SDS011;3968;51.424;6.788;2022-11-15T05:23:33;9.30;;;6.10;;
7845;SDS011;3968;51.424;6.788;2022-11-15T05:26:00;9.13;;;8.17;;
7845;SDS011;3968;51.424;6.788;2022-11-15T05:28:26;10.27;;;7.23;;
7845;SDS011;3968;51.424;6.788;2022-11-15T05:30:52;8.03;;;6.37;;
7845;SDS011;3968;51.424;6.788;2022-11-15T05:33:18;7.03;;;5.23;;
7845;SDS011;3968;51.424;6.788;2022-11-15T05:35:48;7.20;;;5.70;;
7845;SDS011;3968;51.424;6.788;2022-11-15T05:38:19;6.70;;;5.67;;
7845;SDS011;3968;51.424;6.788;2022-11-15T05:40:45;6.73;;;6.10;;
7845;SDS011;3968;51.424;6.788;2022-11-15T05:43:11;10.07;;;8.27;;
7845;SDS011;3968;51.424;6.788;2022-11-15T05:45:36;17.30;;;12.97;;
7845;SDS011;3968;51.424;6.788;2022-11-15T05:48:04;10.50;;;7.73;;
7845;SDS011;3968;51.424;6.788;2022-11-15T05:50:32;8.07;;;6.67;;
7845;SDS011;3968;51.424;6.788;2022-11-15T05:52:59;8.23;;;6.30;;
7845;SDS011;3968;51.424;6.788;2022-11-15T05:55:26;9.03;;;6.70;;
7845;SDS011;3968;51.424;6.788;2022-11-15T05:57:52;7.37;;;6.53;;
7845;SDS011;3968;51.424;6.788;2022-11-15T06:00:17;8.00;;;6.30;;
7845;SDS011;3968;51.424;6.788;2022-11-15T06:02:43;10.43;;;8.43;;
7845;SDS011;3968;51.424;6.788;2022-11-15T06:05:09;9.67;;;7.57;;
7845;SDS011;3968;51.424;6.788;2022-11-15T06:07:34;10.37;;;7.17;;
7845;SDS011;3968;51.424;6.788;2022-11-15T06:10:00;7.60;;;6.20;;
7845;SDS011;3968;51.424;6.788;2022-11-15T06:12:26;8.30;;;6.73;;
7845;SDS011;3968;51.424;6.788;2022-11-15T06:14:51;8.67;;;7.77;;
7845;SDS011;3968;51.424;6.788;2022-11-15T06:17:17;8.80;;;7.37;;
7845;SDS011;3968;51.424;6.788;2022-11-15T06:19:42;8.23;;;6.93;;
7845;SDS011;3968;51.424;6.788;2022-11-15T06:22:08;13.93;;;10.17;;
7845;SDS011;3968;51.424;6.788;2022-11-15T06:24:34;10.40;;;7.60;;
7845;SDS011;3968;51.424;6.788;2022-11-15T06:27:00;8.97;;;7.37;;
7845;SDS011;3968;51.424;6.788;2022-11-15T06:29:25;8.43;;;7.50;;
7845;SDS011;3968;51.424;6.788;2022-11-15T06:31:51;8.67;;;7.30;;
7845;SDS011;3968;51.424;6.788;2022-11-15T06:34:18;8.27;;;6.70;;
7845;SDS011;3968;51.424;6.788;2022-11-15T06:36:43;9.47;;;7.50;;
7845;SDS011;3968;51.424;6.788;2022-11-15T06:39:09;10.13;;;8.20;;
7845;SDS011;3968;51.424;6.788;2022-11-15T06:41:34;12.17;;;7.73;;
7845;SDS011;3968;51.424;6.788;2022-11-15T06:44:01;11.93;;;7.43;;
7845;SDS011;3968;51.424;6.788;2022-11-15T06:46:27;9.67;;;8.17;;
7845;SDS011;3968;51.424;6.788;2022-11-15T06:48:53;7.27;;;6.50;;
7845;SDS011;3968;51.424;6.788;2022-11-15T06:51:19;7.63;;;6.27;;
7845;SDS011;3968;51.424;6.788;2022-11-15T06:53:45;11.50;;;6.23;;
7845;SDS011;3968;51.424;6.788;2022-11-15T06:56:11;7.77;;;6.33;;
7845;SDS011;3968;51.424;6.788;2022-11-15T06:58:37;7.37;;;6.10;;
7845;SDS011;3968;51.424;6.788;2022-11-15T07:01:06;6.70;;;6.10;;
7845;SDS011;3968;51.424;6.788;2022-11-15T07:03:34;7.00;;;6.10;;
7845;SDS011;3968;51.424;6.788;2022-11-15T07:06:01;7.17;;;6.23;;
7845;SDS011;3968;51.424;6.788;2022-11-15T07:08:27;15.67;;;6.10;;
7845;SDS011;3968;51.424;6.788;2022-11-15T07:10:54;7.27;;;5.50;;
7845;SDS011;3968;51.424;6.788;2022-11-15T07:13:26;7.37;;;6.20;;
7845;SDS011;3968;51.424;6.788;2022-11-15T07:15:53;7.80;;;7.00;;
7845;SDS011;3968;51.424;6.788;2022-11-15T07:18:19;6.90;;;6.20;;
7845;SDS011;3968;51.424;6.788;2022-11-15T07:20:45;6.97;;;5.60;;
7845;SDS011;3968;51.424;6.788;2022-11-15T07:23:11;6.17;;;5.53;;
7845;SDS011;3968;51.424;6.788;2022-11-15T07:25:36;6.47;;;5.50;;
7845;SDS011;3968;51.424;6.788;2022-11-15T07:28:02;7.80;;;6.23;;
7845;SDS011;3968;51.424;6.788;2022-11-15T07:30:28;6.27;;;5.50;;
7845;SDS011;3968;51.424;6.788;2022-11-15T07:32:54;6.93;;;5.77;;
7845;SDS011;3968;51.424;6.788;2022-11-15T07:35:25;6.10;;;5.50;;
7845;SDS011;3968;51.424;6.788;2022-11-15T07:37:55;7.50;;;4.97;;
7845;SDS011;3968;51.424;6.788;2022-11-15T07:40:26;5.93;;;5.20;;
7845;SDS011;3968;51.424;6.788;2022-11-15T07:42:58;6.33;;;5.20;;
7845;SDS011;3968;51.424;6.788;2022-11-15T07:45:27;5.67;;;4.90;;
7845;SDS011;3968;51.424;6.788;2022-11-15T07:47:53;5.10;;;4.60;;
7845;SDS011;3968;51.424;6.788;2022-11-15T07:50:20;5.23;;;4.70;;
7845;SDS011;3968;51.424;6.788;2022-11-15T07:52:47;7.37;;;4.50;;
7845;SDS011;3968;51.424;6.788;2022-11-15T07:55:13;5.93;;;4.70;;
7845;SDS011;3968;51.424;6.788;2022-11-15T07:57:38;5.30;;;4.27;;
7845;SDS011;3968;51.424;6.788;2022-11-15T08:00:04;8.70;;;4.63;;
7845;SDS011;3968;51.424;6.788;2022-11-15T08:02:31;5.10;;;4.03;;
7845;SDS011;3968;51.424;6.788;2022-11-15T08:04:56;3.93;;;3.30;;
7845;SDS011;3968;51.424;6.788;2022-11-15T08:07:22;3.40;;;3.00;;
7845;SDS011;3968;51.424;6.788;2022-11-15T08:09:48;3.20;;;2.70;;
7845;SDS011;3968;51.424;6.788;2022-11-15T08:12:14;3.50;;;2.70;;
7845;SDS011;3968;51.424;6.788;2022-11-15T08:14:40;5.07;;;2.90;;
7845;SDS011;3968;51.424;6.788;2022-11-15T08:17:05;3.00;;;2.00;;
7845;SDS011;3968;51.424;6.788;2022-11-15T08:19:31;3.00;;;1.90;;
7845;SDS011;3968;51.424;6.788;2022-11-15T08:21:57;3.13;;;2.30;;
7845;SDS011;3968;51.424;6.788;2022-11-15T08:24:23;2.13;;;1.80;;
7845;SDS011;3968;51.424;6.788;2022-11-15T08:26:49;3.27;;;2.20;;
7845;SDS011;3968;51.424;6.788;2022-11-15T08:29:14;3.60;;;2.10;;
7845;SDS011;3968;51.424;6.788;2022-11-15T08:31:40;3.80;;;2.10;;
7845;SDS011;3968;51.424;6.788;2022-11-15T08:34:05;3.43;;;1.60;;
7845;SDS011;3968;51.424;6.788;2022-11-15T08:36:31;3.10;;;1.70;;
7845;SDS011;3968;51.424;6.788;2022-11-15T08:38:57;1.47;;;1.37;;
7845;SDS011;3968;51.424;6.788;2022-11-15T08:43:53;3.10;;;2.07;;
7845;SDS011;3968;51.424;6.788;2022-11-15T08:46:18;7.93;;;5.77;;
7845;SDS011;3968;51.424;6.788;2022-11-15T08:48:44;8.33;;;5.97;;
7845;SDS011;3968;51.424;6.788;2022-11-15T08:51:10;7.07;;;3.90;;
7845;SDS011;3968;51.424;6.788;2022-11-15T08:53:36;4.33;;;2.07;;
7845;SDS011;3968;51.424;6.788;2022-11-15T08:56:01;2.13;;;1.90;;
7845;SDS011;3968;51.424;6.788;2022-11-15T08:58:27;6.67;;;4.77;;
7845;SDS011;3968;51.424;6.788;2022-11-15T09:00:54;2.87;;;2.23;;
7845;SDS011;3968;51.424;6.788;2022-11-15T09:03:20;1.90;;;1.80;;
7845;SDS011;3968;51.424;6.788;2022-11-15T09:05:45;2.57;;;2.00;;
7845;SDS011;3968;51.424;6.788;2022-11-15T09:08:11;5.17;;;2.80;;
7845;SDS011;3968;51.424;6.788;2022-11-15T09:10:37;2.93;;;2.53;;
7845;SDS011;3968;51.424;6.788;2022-11-15T09:13:03;3.20;;;2.47;;
7845;SDS011;3968;51.424;6.788;2022-11-15T09:15:29;4.83;;;3.13;;
7845;SDS011;3968;51.424;6.788;2022-11-15T09:17:57;3.80;;;3.40;;
7845;SDS011;3968;51.424;6.788;2022-11-15T09:20:24;5.27;;;3.73;;
7845;SDS011;3968;51.424;6.788;2022-11-15T09:22:49;5.80;;;4.30;;
7845;SDS011;3968;51.424;6.788;2022-11-15T09:25:15;3.87;;;3.47;;
7845;SDS011;3968;51.424;6.788;2022-11-15T09:27:41;5.73;;;3.70;;
7845;SDS011;3968;51.424;6.788;2022-11-15T09:30:06;6.87;;;4.80;;
7845;SDS011;3968;51.424;6.788;2022-11-15T09:32:32;6.87;;;4.73;;
7845;SDS011;3968;51.424;6.788;2022-11-15T09:34:58;5.33;;;3.53;;
7845;SDS011;3968;51.424;6.788;2022-11-15T09:37:23;4.13;;;3.73;;
7845;SDS011;3968;51.424;6.788;2022-11-15T09:39:49;7.43;;;4.70;;
7845;SDS011;3968;51.424;6.788;2022-11-15T09:50:46;15.20;;;10.30;;
7845;SDS011;3968;51.424;6.788;2022-11-15T09:53:16;71.67;;;41.47;;
7845;SDS011;3968;51.424;6.788;2022-11-15T09:55:59;20.70;;;12.73;;
7845;SDS011;3968;51.424;6.788;2022-11-15T09:58:44;10.50;;;7.60;;
7845;SDS011;3968;51.424;6.788;2022-11-15T10:02:32;7.60;;;3.90;;
7845;SDS011;3968;51.424;6.788;2022-11-15T10:04:43;6.90;;;4.60;;
7845;SDS011;3968;51.424;6.788;2022-11-15T10:07:13;4.87;;;3.80;;
7845;SDS011;3968;51.424;6.788;2022-11-15T10:12:22;6.13;;;3.40;;
7845;SDS011;3968;51.424;6.788;2022-11-15T10:14:49;6.67;;;3.60;;
7845;SDS011;3968;51.424;6.788;2022-11-15T10:20:23;5.47;;;4.17;;
7845;SDS011;3968;51.424;6.788;2022-11-15T10:22:52;10.33;;;5.60;;
7845;SDS011;3968;51.424;6.788;2022-11-15T10:25:25;7.37;;;3.80;;
7845;SDS011;3968;51.424;6.788;2022-11-15T10:30:23;3.27;;;2.73;;
7845;SDS011;3968;51.424;6.788;2022-11-15T10:32:55;3.70;;;2.90;;
7845;SDS011;3968;51.424;6.788;2022-11-15T10:35:25;2.10;;;1.80;;
7845;SDS011;3968;51.424;6.788;2022-11-15T10:38:06;3.63;;;1.77;;
7845;SDS011;3968;51.424;6.788;2022-11-15T10:40:33;3.53;;;1.93;;
7845;SDS011;3968;51.424;6.788;2022-11-15T10:45:34;2.63;;;1.60;;
7845;SDS011;3968;51.424;6.788;2022-11-15T10:50:42;5.93;;;1.90;;
7845;SDS011;3968;51.424;6.788;2022-11-15T10:53:20;4.50;;;2.03;;
7845;SDS011;3968;51.424;6.788;2022-11-15T10:55:47;3.50;;;2.07;;
7845;SDS011;3968;51.424;6.788;2022-11-15T10:58:28;5.03;;;2.60;;
7845;SDS011;3968;51.424;6.788;2022-11-15T11:01:10;3.00;;;2.23;;
7845;SDS011;3968;51.424;6.788;2022-11-15T11:03:44;7.53;;;2.30;;
7845;SDS011;3968;51.424;6.788;2022-11-15T11:06:23;5.20;;;1.87;;
7845;SDS011;3968;51.424;6.788;2022-11-15T11:08:59;3.57;;;1.90;;
7845;SDS011;3968;51.424;6.788;2022-11-15T11:14:12;2.03;;;1.40;;
7845;SDS011;3968;51.424;6.788;2022-11-15T11:16:47;2.10;;;1.77;;
7845;SDS011;3968;51.424;6.788;2022-11-15T11:19:27;4.30;;;1.77;;
7845;SDS011;3968;51.424;6.788;2022-11-15T11:22:05;1.87;;;1.50;;
7845;SDS011;3968;51.424;6.788;2022-11-15T11:38:39;3.03;;;1.60;;
7845;SDS011;3968;51.424;6.788;2022-11-15T11:44:32;3.77;;;2.37;;
7845;SDS011;3968;51.424;6.788;2022-11-15T11:47:12;4.33;;;1.70;;
7845;SDS011;3968;51.424;6.788;2022-11-15T11:49:46;5.13;;;2.37;;
7845;SDS011;3968;51.424;6.788;2022-11-15T11:52:26;5.10;;;2.30;;
7845;SDS011;3968;51.424;6.788;2022-11-15T11:55:12;5.73;;;2.47;;
7845;SDS011;3968;51.424;6.788;2022-11-15T12:00:29;2.97;;;1.90;;
7845;SDS011;3968;51.424;6.788;2022-11-15T12:08:27;3.73;;;1.67;;
7845;SDS011;3968;51.424;6.788;2022-11-15T12:11:19;4.47;;;1.70;;
7845;SDS011;3968;51.424;6.788;2022-11-15T12:13:49;3.40;;;1.90;;
7845;SDS011;3968;51.424;6.788;2022-11-15T12:16:26;3.10;;;1.40;;
7845;SDS011;3968;51.424;6.788;2022-11-15T12:18:54;1.80;;;1.60;;
7845;SDS011;3968;51.424;6.788;2022-11-15T12:21:24;3.33;;;1.60;;
7845;SDS011;3968;51.424;6.788;2022-11-15T12:24:17;2.40;;;1.30;;
7845;SDS011;3968;51.424;6.788;2022-11-15T12:32:00;4.50;;;1.40;;
7845;SDS011;3968;51.424;6.788;2022-11-15T12:37:00;3.97;;;2.50;;
7845;SDS011;3968;51.424;6.788;2022-11-15T12:42:56;2.47;;;1.40;;
7845;SDS011;3968;51.424;6.788;2022-11-15T12:45:23;2.97;;;1.43;;
7845;SDS011;3968;51.424;6.788;2022-11-15T13:06:47;3.17;;;2.20;;
7845;SDS011;3968;51.424;6.788;2022-11-15T13:11:59;3.90;;;2.00;;
7845;SDS011;3968;51.424;6.788;2022-11-15T13:22:53;7.45;;;1.42;;
7845;SDS011;3968;51.424;6.788;2022-11-15T13:30:38;3.00;;;1.37;;
7845;SDS011;3968;51.424;6.788;2022-11-15T13:33:08;1.53;;;1.10;;
7845;SDS011;3968;51.424;6.788;2022-11-15T13:35:40;4.43;;;1.53;;
7845;SDS011;3968;51.424;6.788;2022-11-15T13:38:11;3.37;;;1.67;;
7845;SDS011;3968;51.424;6.788;2022-11-15T13:43:49;9.40;;;7.20;;
7845;SDS011;3968;51.424;6.788;2022-11-15T13:46:23;11.83;;;6.43;;
7845;SDS011;3968;51.424;6.788;2022-11-15T13:49:02;13.20;;;5.40;;
7845;SDS011;3968;51.424;6.788;2022-11-15T13:51:33;3.77;;;2.40;;
7845;SDS011;3968;51.424;6.788;2022-11-15T13:54:30;4.17;;;2.47;;
7845;SDS011;3968;51.424;6.788;2022-11-15T13:59:28;5.40;;;1.60;;
7845;SDS011;3968;51.424;6.788;2022-11-15T14:02:12;3.67;;;1.40;;
7845;SDS011;3968;51.424;6.788;2022-11-15T14:04:48;5.40;;;1.87;;
7845;SDS011;3968;51.424;6.788;2022-11-15T14:07:25;4.03;;;1.80;;
7845;SDS011;3968;51.424;6.788;2022-11-15T14:09:53;2.07;;;1.33;;
7845;SDS011;3968;51.424;6.788;2022-11-15T14:12:35;2.50;;;1.43;;
7845;SDS011;3968;51.424;6.788;2022-11-15T14:15:02;6.37;;;2.10;;
7845;SDS011;3968;51.424;6.788;2022-11-15T14:18:03;3.60;;;1.47;;
7845;SDS011;3968;51.424;6.788;2022-11-15T14:20:34;3.90;;;1.50;;
7845;SDS011;3968;51.424;6.788;2022-11-15T14:23:03;3.27;;;1.60;;
7845;SDS011;3968;51.424;6.788;2022-11-15T14:28:14;4.43;;;1.50;;
7845;SDS011;3968;51.424;6.788;2022-11-15T14:30:54;3.37;;;1.37;;
7845;SDS011;3968;51.424;6.788;2022-11-15T14:33:28;3.60;;;1.60;;
7845;SDS011;3968;51.424;6.788;2022-11-15T14:35:57;4.67;;;1.40;;
7845;SDS011;3968;51.424;6.788;2022-11-15T14:38:29;3.87;;;1.30;;
7845;SDS011;3968;51.424;6.788;2022-11-15T14:40:54;1.87;;;1.40;;
7845;SDS011;3968;51.424;6.788;2022-11-15T14:43:21;5.30;;;1.70;;
7845;SDS011;3968;51.424;6.788;2022-11-15T14:45:47;2.50;;;1.27;;
7845;SDS011;3968;51.424;6.788;2022-11-15T14:48:13;2.78;;;1.60;;
7845;SDS011;3968;51.424;6.788;2022-11-15T14:50:38;5.90;;;1.90;;
7845;SDS011;3968;51.424;6.788;2022-11-15T14:53:04;2.23;;;1.40;;
7845;SDS011;3968;51.424;6.788;2022-11-15T14:55:31;2.97;;;1.57;;
7845;SDS011;3968;51.424;6.788;2022-11-15T14:58:04;5.40;;;2.00;;
7845;SDS011;3968;51.424;6.788;2022-11-15T15:00:33;3.67;;;1.67;;
7845;SDS011;3968;51.424;6.788;2022-11-15T15:03:00;3.03;;;2.10;;
7845;SDS011;3968;51.424;6.788;2022-11-15T15:05:36;2.27;;;1.70;;
7845;SDS011;3968;51.424;6.788;2022-11-15T15:08:06;2.90;;;1.90;;
7845;SDS011;3968;51.424;6.788;2022-11-15T15:10:51;2.67;;;2.00;;
7845;SDS011;3968;51.424;6.788;2022-11-15T15:15:42;25.87;;;18.77;;
7845;SDS011;3968;51.424;6.788;2022-11-15T15:18:08;66.20;;;41.73;;
7845;SDS011;3968;51.424;6.788;2022-11-15T15:20:37;34.57;;;21.90;;
7845;SDS011;3968;51.424;6.788;2022-11-15T15:23:05;10.93;;;5.97;;
7845;SDS011;3968;51.424;6.788;2022-11-15T15:25:38;4.40;;;3.10;;
7845;SDS011;3968;51.424;6.788;2022-11-15T15:28:05;4.23;;;2.80;;
7845;SDS011;3968;51.424;6.788;2022-11-15T15:30:30;3.13;;;2.57;;
7845;SDS011;3968;51.424;6.788;2022-11-15T15:32:56;3.60;;;2.50;;
7845;SDS011;3968;51.424;6.788;2022-11-15T15:35:22;3.77;;;2.53;;
7845;SDS011;3968;51.424;6.788;2022-11-15T15:37:48;3.10;;;2.13;;
7845;SDS011;3968;51.424;6.788;2022-11-15T15:40:21;5.57;;;2.50;;
7845;SDS011;3968;51.424;6.788;2022-11-15T15:42:48;4.33;;;2.80;;
7845;SDS011;3968;51.424;6.788;2022-11-15T15:45:14;6.97;;;3.30;;
7845;SDS011;3968;51.424;6.788;2022-11-15T15:47:41;33.10;;;22.53;;
7845;SDS011;3968;51.424;6.788;2022-11-15T15:50:26;47.40;;;28.27;;
7845;SDS011;3968;51.424;6.788;2022-11-15T15:52:53;16.37;;;11.87;;
7845;SDS011;3968;51.424;6.788;2022-11-15T15:55:20;9.00;;;5.73;;
7845;SDS011;3968;51.424;6.788;2022-11-15T15:57:46;7.07;;;2.97;;
7845;SDS011;3968;51.424;6.788;2022-11-15T16:00:12;6.37;;;2.60;;
7845;SDS011;3968;51.424;6.788;2022-11-15T16:02:39;2.67;;;2.47;;
7845;SDS011;3968;51.424;6.788;2022-11-15T16:05:05;4.43;;;3.10;;
7845;SDS011;3968;51.424;6.788;2022-11-15T16:07:32;3.40;;;2.40;;
7845;SDS011;3968;51.424;6.788;2022-11-15T16:09:58;9.40;;;2.60;;
7845;SDS011;3968;51.424;6.788;2022-11-15T16:12:27;2.93;;;2.37;;
7845;SDS011;3968;51.424;6.788;2022-11-15T16:14:59;5.73;;;2.50;;
7845;SDS011;3968;51.424;6.788;2022-11-15T16:17:37;4.33;;;2.33;;
7845;SDS011;3968;51.424;6.788;2022-11-15T16:20:04;2.63;;;2.03;;
7845;SDS011;3968;51.424;6.788;2022-11-15T16:22:31;3.80;;;2.47;;
7845;SDS011;3968;51.424;6.788;2022-11-15T16:24:56;3.93;;;2.50;;
7845;SDS011;3968;51.424;6.788;2022-11-15T16:27:22;3.90;;;2.80;;
7845;SDS011;3968;51.424;6.788;2022-11-15T16:29:48;3.23;;;2.20;;
7845;SDS011;3968;51.424;6.788;2022-11-15T16:32:14;3.23;;;2.27;;
7845;SDS011;3968;51.424;6.788;2022-11-15T16:34:40;25.33;;;16.83;;
7845;SDS011;3968;51.424;6.788;2022-11-15T16:37:08;11.90;;;7.53;;
7845;SDS011;3968;51.424;6.788;2022-11-15T16:39:48;4.67;;;2.80;;
7845;SDS011;3968;51.424;6.788;2022-11-15T16:42:14;4.37;;;2.67;;
7845;SDS011;3968;51.424;6.788;2022-11-15T16:44:40;5.30;;;2.47;;
7845;SDS011;3968;51.424;6.788;2022-11-15T16:47:11;3.13;;;2.57;;
7845;SDS011;3968;51.424;6.788;2022-11-15T16:49:42;3.27;;;2.23;;
7845;SDS011;3968;51.424;6.788;2022-11-15T16:52:08;3.00;;;2.60;;
7845;SDS011;3968;51.424;6.788;2022-11-15T16:54:34;5.17;;;3.30;;
7845;SDS011;3968;51.424;6.788;2022-11-15T16:56:59;3.10;;;2.50;;
7845;SDS011;3968;51.424;6.788;2022-11-15T16:59:25;3.90;;;2.70;;
7845;SDS011;3968;51.424;6.788;2022-11-15T17:01:51;3.83;;;2.70;;
7845;SDS011;3968;51.424;6.788;2022-11-15T17:04:17;6.00;;;2.60;;
7845;SDS011;3968;51.424;6.788;2022-11-15T17:06:45;3.53;;;2.57;;
7845;SDS011;3968;51.424;6.788;2022-11-15T17:09:13;4.10;;;2.83;;
7845;SDS011;3968;51.424;6.788;2022-11-15T17:11:40;5.50;;;3.90;;
7845;SDS011;3968;51.424;6.788;2022-11-15T17:14:07;3.67;;;3.30;;
7845;SDS011;3968;51.424;6.788;2022-11-15T17:16:32;4.83;;;3.30;;
7845;SDS011;3968;51.424;6.788;2022-11-15T17:19:00;4.10;;;2.70;;
7845;SDS011;3968;51.424;6.788;2022-11-15T17:21:26;4.03;;;2.30;;
7845;SDS011;3968;51.424;6.788;2022-11-15T17:23:52;3.57;;;2.50;;
7845;SDS011;3968;51.424;6.788;2022-11-15T17:26:18;5.67;;;2.33;;
7845;SDS011;3968;51.424;6.788;2022-11-15T17:28:45;5.13;;;2.70;;
7845;SDS011;3968;51.424;6.788;2022-11-15T17:31:11;2.60;;;2.27;;
7845;SDS011;3968;51.424;6.788;2022-11-15T17:33:39;3.30;;;2.10;;
7845;SDS011;3968;51.424;6.788;2022-11-15T17:36:06;2.70;;;2.27;;
7845;SDS011;3968;51.424;6.788;2022-11-15T17:38:34;2.53;;;2.30;;
7845;SDS011;3968;51.424;6.788;2022-11-15T17:43:29;4.23;;;2.80;;
7845;SDS011;3968;51.424;6.788;2022-11-15T17:45:56;4.00;;;2.30;;
7845;SDS011;3968;51.424;6.788;2022-11-15T17:48:22;3.00;;;2.70;;
7845;SDS011;3968;51.424;6.788;2022-11-15T17:50:58;2.93;;;2.60;;
7845;SDS011;3968;51.424;6.788;2022-11-15T17:53:34;4.37;;;2.17;;
7845;SDS011;3968;51.424;6.788;2022-11-15T17:56:05;2.60;;;2.30;;
7845;SDS011;3968;51.424;6.788;2022-11-15T17:58:35;3.97;;;2.20;;
7845;SDS011;3968;51.424;6.788;2022-11-15T18:01:05;3.73;;;2.70;;